sensor_id;sensor_type;location;lat;lon;timestamp;P1;durP1;ratioP1;P2;durP2;ratioP2
75814;SDS011;70031;45.570;14.228;2023-05-15T00:08:27;0.73;;;0.50;;
75814;SDS011;70031;45.570;14.228;2023-05-15T00:10:39;0.40;;;0.40;;
75814;SDS011;70031;45.570;14.228;2023-05-15T00:17:14;1.08;;;0.55;;
75814;SDS011;70031;45.570;14.228;2023-05-15T00:19:14;1.10;;;0.70;;
75814;SDS011;70031;45.570;14.228;2023-05-15T00:21:15;1.80;;;0.95;;
75814;SDS011;70031;45.570;14.228;2023-05-15T00:23:30;1.05;;;0.60;;
75814;SDS011;70031;45.570;14.228;2023-05-15T00:25:30;0.88;;;0.60;;
75814;SDS011;70031;45.570;14.228;2023-05-15T00:27:39;3.40;;;0.70;;
75814;SDS011;70031;45.570;14.228;2023-05-15T00:32:10;0.52;;;0.40;;
75814;SDS011;70031;45.570;14.228;2023-05-15T00:34:11;0.63;;;0.60;;
75814;SDS011;70031;45.570;14.228;2023-05-15T00:36:11;0.57;;;0.32;;
75814;SDS011;70031;45.570;14.228;2023-05-15T00:38:21;0.47;;;0.40;;
75814;SDS011;70031;45.570;14.228;2023-05-15T00:40:22;0.65;;;0.50;;
75814;SDS011;70031;45.570;14.228;2023-05-15T00:42:33;0.63;;;0.60;;
75814;SDS011;70031;45.570;14.228;2023-05-15T00:44:34;1.17;;;0.50;;
75814;SDS011;70031;45.570;14.228;2023-05-15T00:46:37;0.75;;;0.40;;
75814;SDS011;70031;45.570;14.228;2023-05-15T00:48:38;1.83;;;0.60;;
75814;SDS011;70031;45.570;14.228;2023-05-15T00:50:47;0.60;;;0.60;;
75814;SDS011;70031;45.570;14.228;2023-05-15T00:53:13;4.38;;;0.57;;
75814;SDS011;70031;45.570;14.228;2023-05-15T00:55:14;1.52;;;0.50;;
75814;SDS011;70031;45.570;14.228;2023-05-15T00:57:15;0.60;;;0.45;;
75814;SDS011;70031;45.570;14.228;2023-05-15T00:59:31;0.63;;;0.30;;
75814;SDS011;70031;45.570;14.228;2023-05-15T01:01:32;1.33;;;0.70;;
75814;SDS011;70031;45.570;14.228;2023-05-15T01:03:39;0.47;;;0.47;;
75814;SDS011;70031;45.570;14.228;2023-05-15T01:05:46;1.50;;;0.60;;
75814;SDS011;70031;45.570;14.228;2023-05-15T01:07:48;0.70;;;0.45;;
75814;SDS011;70031;45.570;14.228;2023-05-15T01:10:09;1.73;;;0.65;;
75814;SDS011;70031;45.570;14.228;2023-05-15T01:14:40;1.30;;;0.45;;
75814;SDS011;70031;45.570;14.228;2023-05-15T01:16:40;3.13;;;0.75;;
75814;SDS011;70031;45.570;14.228;2023-05-15T01:23:14;0.75;;;0.60;;
75814;SDS011;70031;45.570;14.228;2023-05-15T01:30:27;0.93;;;0.50;;
75814;SDS011;70031;45.570;14.228;2023-05-15T01:37:27;0.82;;;0.60;;
75814;SDS011;70031;45.570;14.228;2023-05-15T01:39:49;1.35;;;0.60;;
75814;SDS011;70031;45.570;14.228;2023-05-15T01:41:54;0.80;;;0.57;;
75814;SDS011;70031;45.570;14.228;2023-05-15T01:44:10;0.65;;;0.65;;
75814;SDS011;70031;45.570;14.228;2023-05-15T01:46:19;1.98;;;0.80;;
75814;SDS011;70031;45.570;14.228;2023-05-15T01:50:43;1.10;;;0.70;;
75814;SDS011;70031;45.570;14.228;2023-05-15T01:52:53;0.50;;;0.50;;
75814;SDS011;70031;45.570;14.228;2023-05-15T01:54:57;1.65;;;1.00;;
75814;SDS011;70031;45.570;14.228;2023-05-15T01:57:01;2.40;;;0.70;;
75814;SDS011;70031;45.570;14.228;2023-05-15T01:59:02;0.70;;;0.60;;
75814;SDS011;70031;45.570;14.228;2023-05-15T02:01:04;0.40;;;0.40;;
75814;SDS011;70031;45.570;14.228;2023-05-15T02:03:10;0.57;;;0.40;;
75814;SDS011;70031;45.570;14.228;2023-05-15T02:07:22;0.80;;;0.65;;
75814;SDS011;70031;45.570;14.228;2023-05-15T02:09:32;0.75;;;0.50;;
75814;SDS011;70031;45.570;14.228;2023-05-15T02:11:37;1.13;;;0.60;;
75814;SDS011;70031;45.570;14.228;2023-05-15T02:13:50;0.88;;;0.70;;
75814;SDS011;70031;45.570;14.228;2023-05-15T02:15:52;1.38;;;0.90;;
75814;SDS011;70031;45.570;14.228;2023-05-15T02:17:58;1.50;;;0.68;;
75814;SDS011;70031;45.570;14.228;2023-05-15T02:20:11;0.57;;;0.52;;
75814;SDS011;70031;45.570;14.228;2023-05-15T02:22:23;0.77;;;0.50;;
75814;SDS011;70031;45.570;14.228;2023-05-15T02:24:36;1.00;;;0.70;;
75814;SDS011;70031;45.570;14.228;2023-05-15T02:29:29;1.08;;;0.47;;
75814;SDS011;70031;45.570;14.228;2023-05-15T02:34:08;0.60;;;0.60;;
75814;SDS011;70031;45.570;14.228;2023-05-15T02:41:23;1.25;;;0.75;;
75814;SDS011;70031;45.570;14.228;2023-05-15T02:43:33;5.65;;;0.80;;
75814;SDS011;70031;45.570;14.228;2023-05-15T02:45:38;1.25;;;0.70;;
75814;SDS011;70031;45.570;14.228;2023-05-15T02:47:55;1.05;;;0.60;;
75814;SDS011;70031;45.570;14.228;2023-05-15T02:50:09;3.75;;;0.60;;
75814;SDS011;70031;45.570;14.228;2023-05-15T02:52:21;1.10;;;0.80;;
75814;SDS011;70031;45.570;14.228;2023-05-15T02:54:31;0.60;;;0.60;;
75814;SDS011;70031;45.570;14.228;2023-05-15T02:56:40;2.15;;;0.95;;
75814;SDS011;70031;45.570;14.228;2023-05-15T02:59:01;1.52;;;0.90;;
75814;SDS011;70031;45.570;14.228;2023-05-15T03:01:08;1.23;;;0.90;;
75814;SDS011;70031;45.570;14.228;2023-05-15T03:03:11;1.13;;;0.80;;
75814;SDS011;70031;45.570;14.228;2023-05-15T03:05:24;1.17;;;0.60;;
75814;SDS011;70031;45.570;14.228;2023-05-15T03:09:27;1.13;;;0.80;;
75814;SDS011;70031;45.570;14.228;2023-05-15T03:11:27;1.45;;;0.82;;
75814;SDS011;70031;45.570;14.228;2023-05-15T03:13:27;0.88;;;0.70;;
75814;SDS011;70031;45.570;14.228;2023-05-15T03:15:30;1.33;;;0.82;;
75814;SDS011;70031;45.570;14.228;2023-05-15T03:17:40;1.65;;;0.80;;
75814;SDS011;70031;45.570;14.228;2023-05-15T03:19:50;3.38;;;1.20;;
75814;SDS011;70031;45.570;14.228;2023-05-15T03:21:50;1.13;;;0.85;;
75814;SDS011;70031;45.570;14.228;2023-05-15T03:26:21;1.40;;;0.90;;
75814;SDS011;70031;45.570;14.228;2023-05-15T03:28:27;2.30;;;0.90;;
75814;SDS011;70031;45.570;14.228;2023-05-15T03:32:50;1.23;;;0.85;;
75814;SDS011;70031;45.570;14.228;2023-05-15T03:35:02;4.50;;;1.20;;
75814;SDS011;70031;45.570;14.228;2023-05-15T03:37:12;2.53;;;1.08;;
75814;SDS011;70031;45.570;14.228;2023-05-15T03:41:37;2.15;;;1.10;;
75814;SDS011;70031;45.570;14.228;2023-05-15T03:43:38;1.73;;;1.00;;
75814;SDS011;70031;45.570;14.228;2023-05-15T03:45:44;2.22;;;0.85;;
75814;SDS011;70031;45.570;14.228;2023-05-15T03:47:52;2.45;;;1.05;;
75814;SDS011;70031;45.570;14.228;2023-05-15T03:50:01;1.30;;;0.85;;
75814;SDS011;70031;45.570;14.228;2023-05-15T03:52:14;2.17;;;0.93;;
75814;SDS011;70031;45.570;14.228;2023-05-15T03:54:18;1.13;;;0.80;;
75814;SDS011;70031;45.570;14.228;2023-05-15T03:56:31;1.38;;;0.88;;
75814;SDS011;70031;45.570;14.228;2023-05-15T03:58:37;2.45;;;1.20;;
75814;SDS011;70031;45.570;14.228;2023-05-15T04:04:53;5.35;;;2.65;;
75814;SDS011;70031;45.570;14.228;2023-05-15T04:06:59;7.97;;;3.55;;
75814;SDS011;70031;45.570;14.228;2023-05-15T04:09:02;7.07;;;3.78;;
75814;SDS011;70031;45.570;14.228;2023-05-15T04:11:05;7.60;;;3.53;;
75814;SDS011;70031;45.570;14.228;2023-05-15T04:13:07;7.82;;;3.53;;
75814;SDS011;70031;45.570;14.228;2023-05-15T04:17:42;6.47;;;3.25;;
75814;SDS011;70031;45.570;14.228;2023-05-15T04:21:59;7.10;;;1.80;;
75814;SDS011;70031;45.570;14.228;2023-05-15T04:23:59;4.90;;;2.17;;
75814;SDS011;70031;45.570;14.228;2023-05-15T04:25:59;7.45;;;3.75;;
75814;SDS011;70031;45.570;14.228;2023-05-15T04:28:09;4.25;;;1.20;;
75814;SDS011;70031;45.570;14.228;2023-05-15T04:30:09;2.40;;;1.15;;
75814;SDS011;70031;45.570;14.228;2023-05-15T04:32:19;1.75;;;1.17;;
75814;SDS011;70031;45.570;14.228;2023-05-15T04:34:31;3.75;;;1.30;;
75814;SDS011;70031;45.570;14.228;2023-05-15T04:36:32;1.55;;;0.90;;
75814;SDS011;70031;45.570;14.228;2023-05-15T04:38:49;2.80;;;1.13;;
75814;SDS011;70031;45.570;14.228;2023-05-15T04:40:50;2.22;;;1.27;;
75814;SDS011;70031;45.570;14.228;2023-05-15T04:42:53;2.55;;;1.42;;
75814;SDS011;70031;45.570;14.228;2023-05-15T04:45:00;2.33;;;1.25;;
75814;SDS011;70031;45.570;14.228;2023-05-15T04:47:04;3.38;;;1.42;;
75814;SDS011;70031;45.570;14.228;2023-05-15T04:49:04;2.85;;;1.42;;
75814;SDS011;70031;45.570;14.228;2023-05-15T04:51:17;2.75;;;1.52;;
75814;SDS011;70031;45.570;14.228;2023-05-15T04:53:18;3.58;;;1.73;;
75814;SDS011;70031;45.570;14.228;2023-05-15T04:57:40;3.72;;;1.98;;
75814;SDS011;70031;45.570;14.228;2023-05-15T04:59:40;4.20;;;1.92;;
75814;SDS011;70031;45.570;14.228;2023-05-15T05:01:40;3.58;;;1.73;;
75814;SDS011;70031;45.570;14.228;2023-05-15T05:03:41;2.92;;;1.85;;
75814;SDS011;70031;45.570;14.228;2023-05-15T05:05:41;7.53;;;2.00;;
75814;SDS011;70031;45.570;14.228;2023-05-15T05:07:41;3.17;;;1.67;;
75814;SDS011;70031;45.570;14.228;2023-05-15T05:09:46;2.55;;;1.70;;
75814;SDS011;70031;45.570;14.228;2023-05-15T05:11:47;3.38;;;1.98;;
75814;SDS011;70031;45.570;14.228;2023-05-15T05:13:47;3.20;;;1.60;;
75814;SDS011;70031;45.570;14.228;2023-05-15T05:15:50;2.60;;;1.65;;
75814;SDS011;70031;45.570;14.228;2023-05-15T05:17:59;2.92;;;1.60;;
75814;SDS011;70031;45.570;14.228;2023-05-15T05:20:06;2.80;;;1.52;;
75814;SDS011;70031;45.570;14.228;2023-05-15T05:22:26;4.15;;;1.17;;
75814;SDS011;70031;45.570;14.228;2023-05-15T05:24:30;2.45;;;1.50;;
75814;SDS011;70031;45.570;14.228;2023-05-15T05:26:37;3.08;;;1.50;;
75814;SDS011;70031;45.570;14.228;2023-05-15T05:36:23;1.63;;;1.20;;
75814;SDS011;70031;45.570;14.228;2023-05-15T05:39:10;2.53;;;1.30;;
75814;SDS011;70031;45.570;14.228;2023-05-15T05:41:17;3.08;;;1.35;;
75814;SDS011;70031;45.570;14.228;2023-05-15T05:43:20;2.03;;;1.27;;
75814;SDS011;70031;45.570;14.228;2023-05-15T05:45:23;2.28;;;1.45;;
75814;SDS011;70031;45.570;14.228;2023-05-15T05:47:32;2.55;;;1.40;;
75814;SDS011;70031;45.570;14.228;2023-05-15T05:49:39;2.40;;;1.40;;
75814;SDS011;70031;45.570;14.228;2023-05-15T05:54:03;3.10;;;1.00;;
75814;SDS011;70031;45.570;14.228;2023-05-15T05:58:19;2.35;;;1.10;;
75814;SDS011;70031;45.570;14.228;2023-05-15T06:00:23;2.15;;;1.20;;
75814;SDS011;70031;45.570;14.228;2023-05-15T06:02:56;2.00;;;1.30;;
75814;SDS011;70031;45.570;14.228;2023-05-15T06:07:43;4.97;;;1.38;;
75814;SDS011;70031;45.570;14.228;2023-05-15T06:15:19;2.22;;;1.40;;
75814;SDS011;70031;45.570;14.228;2023-05-15T06:30:30;2.10;;;1.00;;
75814;SDS011;70031;45.570;14.228;2023-05-15T06:35:16;0.85;;;0.85;;
75814;SDS011;70031;45.570;14.228;2023-05-15T06:37:37;1.95;;;1.05;;
75814;SDS011;70031;45.570;14.228;2023-05-15T06:39:38;1.95;;;1.35;;
75814;SDS011;70031;45.570;14.228;2023-05-15T06:41:48;4.43;;;1.80;;
75814;SDS011;70031;45.570;14.228;2023-05-15T06:44:08;3.72;;;1.77;;
75814;SDS011;70031;45.570;14.228;2023-05-15T06:48:33;3.38;;;2.00;;
75814;SDS011;70031;45.570;14.228;2023-05-15T06:50:33;4.55;;;2.30;;
75814;SDS011;70031;45.570;14.228;2023-05-15T06:55:05;3.78;;;2.33;;
75814;SDS011;70031;45.570;14.228;2023-05-15T06:57:06;3.30;;;1.73;;
75814;SDS011;70031;45.570;14.228;2023-05-15T06:59:06;6.47;;;2.40;;
75814;SDS011;70031;45.570;14.228;2023-05-15T07:01:14;4.00;;;1.90;;
75814;SDS011;70031;45.570;14.228;2023-05-15T07:03:17;6.32;;;2.83;;
75814;SDS011;70031;45.570;14.228;2023-05-15T07:05:30;7.18;;;3.58;;
75814;SDS011;70031;45.570;14.228;2023-05-15T07:07:31;5.60;;;2.63;;
75814;SDS011;70031;45.570;14.228;2023-05-15T07:12:21;3.03;;;1.95;;
75814;SDS011;70031;45.570;14.228;2023-05-15T07:14:29;3.40;;;2.10;;
75814;SDS011;70031;45.570;14.228;2023-05-15T07:16:30;6.22;;;2.50;;
75814;SDS011;70031;45.570;14.228;2023-05-15T07:18:43;4.65;;;2.42;;
75814;SDS011;70031;45.570;14.228;2023-05-15T07:20:46;4.38;;;2.45;;
75814;SDS011;70031;45.570;14.228;2023-05-15T07:22:47;5.40;;;2.40;;
75814;SDS011;70031;45.570;14.228;2023-05-15T07:27:24;7.38;;;3.08;;
75814;SDS011;70031;45.570;14.228;2023-05-15T07:37:41;2.42;;;1.60;;
75814;SDS011;70031;45.570;14.228;2023-05-15T07:40:00;2.15;;;1.42;;
75814;SDS011;70031;45.570;14.228;2023-05-15T07:44:58;2.88;;;1.50;;
75814;SDS011;70031;45.570;14.228;2023-05-15T07:47:19;1.65;;;1.20;;
75814;SDS011;70031;45.570;14.228;2023-05-15T08:22:18;0.63;;;0.60;;
75814;SDS011;70031;45.570;14.228;2023-05-15T08:24:25;1.02;;;0.80;;
75814;SDS011;70031;45.570;14.228;2023-05-15T08:32:18;3.17;;;0.93;;
75814;SDS011;70031;45.570;14.228;2023-05-15T08:34:29;6.15;;;1.88;;
75814;SDS011;70031;45.570;14.228;2023-05-15T08:37:03;1.17;;;0.70;;
75814;SDS011;70031;45.570;14.228;2023-05-15T08:44:19;0.93;;;0.50;;
75814;SDS011;70031;45.570;14.228;2023-05-15T08:49:47;0.95;;;0.50;;
75814;SDS011;70031;45.570;14.228;2023-05-15T08:52:10;0.80;;;0.50;;
75814;SDS011;70031;45.570;14.228;2023-05-15T08:54:24;0.30;;;0.30;;
75814;SDS011;70031;45.570;14.228;2023-05-15T08:56:24;3.40;;;0.80;;
75814;SDS011;70031;45.570;14.228;2023-05-15T08:58:35;2.65;;;0.47;;
75814;SDS011;70031;45.570;14.228;2023-05-15T09:00:36;0.60;;;0.60;;
75814;SDS011;70031;45.570;14.228;2023-05-15T09:02:39;0.50;;;0.50;;
75814;SDS011;70031;45.570;14.228;2023-05-15T09:06:57;6.13;;;1.17;;
75814;SDS011;70031;45.570;14.228;2023-05-15T09:09:22;0.57;;;0.57;;
75814;SDS011;70031;45.570;14.228;2023-05-15T09:11:45;0.50;;;0.50;;
75814;SDS011;70031;45.570;14.228;2023-05-15T09:13:59;0.57;;;0.57;;
75814;SDS011;70031;45.570;14.228;2023-05-15T09:16:00;1.38;;;0.80;;
75814;SDS011;70031;45.570;14.228;2023-05-15T09:20:51;0.55;;;0.55;;
75814;SDS011;70031;45.570;14.228;2023-05-15T09:23:41;0.98;;;0.60;;
75814;SDS011;70031;45.570;14.228;2023-05-15T09:26:12;0.60;;;0.60;;
75814;SDS011;70031;45.570;14.228;2023-05-15T09:31:11;1.02;;;0.93;;
75814;SDS011;70031;45.570;14.228;2023-05-15T09:33:46;0.87;;;0.80;;
75814;SDS011;70031;45.570;14.228;2023-05-15T09:36:20;1.52;;;0.90;;
75814;SDS011;70031;45.570;14.228;2023-05-15T09:38:21;1.83;;;1.00;;
75814;SDS011;70031;45.570;14.228;2023-05-15T09:40:22;1.67;;;0.95;;
75814;SDS011;70031;45.570;14.228;2023-05-15T09:42:22;1.00;;;0.90;;
75814;SDS011;70031;45.570;14.228;2023-05-15T09:44:24;0.93;;;0.82;;
75814;SDS011;70031;45.570;14.228;2023-05-15T09:46:33;1.45;;;0.98;;
75814;SDS011;70031;45.570;14.228;2023-05-15T09:48:36;1.08;;;0.82;;
75814;SDS011;70031;45.570;14.228;2023-05-15T09:50:38;0.95;;;0.70;;
75814;SDS011;70031;45.570;14.228;2023-05-15T09:52:43;1.00;;;0.80;;
75814;SDS011;70031;45.570;14.228;2023-05-15T09:56:48;1.40;;;0.90;;
75814;SDS011;70031;45.570;14.228;2023-05-15T09:58:53;1.90;;;0.70;;
75814;SDS011;70031;45.570;14.228;2023-05-15T10:00:56;0.98;;;0.80;;
75814;SDS011;70031;45.570;14.228;2023-05-15T10:03:00;1.80;;;0.50;;
75814;SDS011;70031;45.570;14.228;2023-05-15T10:05:19;1.02;;;0.70;;
75814;SDS011;70031;45.570;14.228;2023-05-15T10:07:26;0.98;;;0.80;;
75814;SDS011;70031;45.570;14.228;2023-05-15T10:09:46;0.52;;;0.52;;
75814;SDS011;70031;45.570;14.228;2023-05-15T10:11:49;0.70;;;0.70;;
75814;SDS011;70031;45.570;14.228;2023-05-15T10:13:54;0.60;;;0.60;;
75814;SDS011;70031;45.570;14.228;2023-05-15T10:15:55;0.57;;;0.57;;
75814;SDS011;70031;45.570;14.228;2023-05-15T10:17:56;1.03;;;0.80;;
75814;SDS011;70031;45.570;14.228;2023-05-15T10:20:20;0.55;;;0.55;;
75814;SDS011;70031;45.570;14.228;2023-05-15T10:22:33;1.10;;;0.70;;
75814;SDS011;70031;45.570;14.228;2023-05-15T10:24:55;0.95;;;0.88;;
75814;SDS011;70031;45.570;14.228;2023-05-15T10:27:13;0.68;;;0.68;;
75814;SDS011;70031;45.570;14.228;2023-05-15T10:29:31;0.90;;;0.82;;
75814;SDS011;70031;45.570;14.228;2023-05-15T10:31:48;0.60;;;0.60;;
75814;SDS011;70031;45.570;14.228;2023-05-15T10:34:05;0.88;;;0.77;;
75814;SDS011;70031;45.570;14.228;2023-05-15T10:36:06;0.50;;;0.50;;
75814;SDS011;70031;45.570;14.228;2023-05-15T10:40:20;0.40;;;0.40;;
75814;SDS011;70031;45.570;14.228;2023-05-15T10:42:24;0.47;;;0.47;;
75814;SDS011;70031;45.570;14.228;2023-05-15T10:44:40;1.17;;;0.80;;
75814;SDS011;70031;45.570;14.228;2023-05-15T10:46:52;1.48;;;0.65;;
75814;SDS011;70031;45.570;14.228;2023-05-15T10:48:54;0.77;;;0.73;;
75814;SDS011;70031;45.570;14.228;2023-05-15T10:53:35;1.02;;;0.57;;
75814;SDS011;70031;45.570;14.228;2023-05-15T10:55:36;0.73;;;0.70;;
75814;SDS011;70031;45.570;14.228;2023-05-15T10:57:46;1.60;;;0.73;;
75814;SDS011;70031;45.570;14.228;2023-05-15T10:59:58;1.73;;;0.50;;
75814;SDS011;70031;45.570;14.228;2023-05-15T11:02:38;0.63;;;0.63;;
75814;SDS011;70031;45.570;14.228;2023-05-15T11:07:16;0.57;;;0.57;;
75814;SDS011;70031;45.570;14.228;2023-05-15T11:14:21;1.08;;;0.77;;
75814;SDS011;70031;45.570;14.228;2023-05-15T11:21:25;1.00;;;0.85;;
75814;SDS011;70031;45.570;14.228;2023-05-15T11:23:57;0.50;;;0.50;;
75814;SDS011;70031;45.570;14.228;2023-05-15T11:26:05;1.02;;;0.57;;
75814;SDS011;70031;45.570;14.228;2023-05-15T11:28:19;0.70;;;0.70;;
75814;SDS011;70031;45.570;14.228;2023-05-15T11:30:22;0.65;;;0.65;;
75814;SDS011;70031;45.570;14.228;2023-05-15T11:34:52;0.65;;;0.65;;
75814;SDS011;70031;45.570;14.228;2023-05-15T11:36:59;0.45;;;0.45;;
75814;SDS011;70031;45.570;14.228;2023-05-15T11:39:09;0.70;;;0.52;;
75814;SDS011;70031;45.570;14.228;2023-05-15T11:41:22;0.50;;;0.50;;
75814;SDS011;70031;45.570;14.228;2023-05-15T11:43:32;2.47;;;0.43;;
75814;SDS011;70031;45.570;14.228;2023-05-15T11:48:01;0.40;;;0.40;;
75814;SDS011;70031;45.570;14.228;2023-05-15T11:50:03;0.40;;;0.40;;
75814;SDS011;70031;45.570;14.228;2023-05-15T11:52:08;0.30;;;0.30;;
75814;SDS011;70031;45.570;14.228;2023-05-15T11:54:16;1.13;;;0.32;;
75814;SDS011;70031;45.570;14.228;2023-05-15T12:00:54;1.10;;;0.30;;
75814;SDS011;70031;45.570;14.228;2023-05-15T12:03:00;0.30;;;0.30;;
75814;SDS011;70031;45.570;14.228;2023-05-15T12:05:07;0.30;;;0.30;;
75814;SDS011;70031;45.570;14.228;2023-05-15T12:11:53;7.22;;;0.30;;
75814;SDS011;70031;45.570;14.228;2023-05-15T12:16:07;0.40;;;0.30;;
75814;SDS011;70031;45.570;14.228;2023-05-15T12:18:23;0.30;;;0.30;;
75814;SDS011;70031;45.570;14.228;2023-05-15T12:20:31;0.55;;;0.20;;
75814;SDS011;70031;45.570;14.228;2023-05-15T12:28:55;0.32;;;0.20;;
75814;SDS011;70031;45.570;14.228;2023-05-15T12:31:05;0.98;;;0.22;;
75814;SDS011;70031;45.570;14.228;2023-05-15T12:37:44;0.30;;;0.30;;
75814;SDS011;70031;45.570;14.228;2023-05-15T12:42:15;0.22;;;0.22;;
75814;SDS011;70031;45.570;14.228;2023-05-15T12:44:28;0.52;;;0.35;;
75814;SDS011;70031;45.570;14.228;2023-05-15T12:48:41;1.70;;;0.75;;
75814;SDS011;70031;45.570;14.228;2023-05-15T12:53:05;0.80;;;0.30;;
75814;SDS011;70031;45.570;14.228;2023-05-15T12:55:05;0.60;;;0.40;;
75814;SDS011;70031;45.570;14.228;2023-05-15T12:59:33;0.52;;;0.43;;
75814;SDS011;70031;45.570;14.228;2023-05-15T13:03:46;0.75;;;0.32;;
75814;SDS011;70031;45.570;14.228;2023-05-15T13:05:46;3.92;;;0.47;;
75814;SDS011;70031;45.570;14.228;2023-05-15T13:08:05;0.40;;;0.40;;
75814;SDS011;70031;45.570;14.228;2023-05-15T13:12:50;1.38;;;0.50;;
75814;SDS011;70031;45.570;14.228;2023-05-15T13:19:41;0.20;;;0.20;;
75814;SDS011;70031;45.570;14.228;2023-05-15T13:23:54;0.20;;;0.20;;
75814;SDS011;70031;45.570;14.228;2023-05-15T13:25:57;0.20;;;0.20;;
75814;SDS011;70031;45.570;14.228;2023-05-15T13:28:01;1.30;;;0.43;;
75814;SDS011;70031;45.570;14.228;2023-05-15T13:30:03;2.33;;;0.20;;
75814;SDS011;70031;45.570;14.228;2023-05-15T13:32:04;0.22;;;0.22;;
75814;SDS011;70031;45.570;14.228;2023-05-15T13:34:08;0.98;;;0.15;;
75814;SDS011;70031;45.570;14.228;2023-05-15T13:38:25;0.20;;;0.20;;
75814;SDS011;70031;45.570;14.228;2023-05-15T13:40:29;0.17;;;0.17;;
75814;SDS011;70031;45.570;14.228;2023-05-15T13:42:40;0.20;;;0.20;;
75814;SDS011;70031;45.570;14.228;2023-05-15T13:47:17;0.28;;;0.20;;
75814;SDS011;70031;45.570;14.228;2023-05-15T13:49:20;0.35;;;0.35;;
75814;SDS011;70031;45.570;14.228;2023-05-15T13:51:20;0.30;;;0.30;;
75814;SDS011;70031;45.570;14.228;2023-05-15T13:56:04;0.20;;;0.20;;
75814;SDS011;70031;45.570;14.228;2023-05-15T13:58:04;0.13;;;0.13;;
75814;SDS011;70031;45.570;14.228;2023-05-15T14:00:05;1.45;;;0.20;;
75814;SDS011;70031;45.570;14.228;2023-05-15T14:02:23;0.22;;;0.22;;
75814;SDS011;70031;45.570;14.228;2023-05-15T14:04:58;0.13;;;0.13;;
75814;SDS011;70031;45.570;14.228;2023-05-15T14:07:02;0.20;;;0.20;;
75814;SDS011;70031;45.570;14.228;2023-05-15T14:11:58;0.30;;;0.30;;
75814;SDS011;70031;45.570;14.228;2023-05-15T14:18:08;0.30;;;0.30;;
75814;SDS011;70031;45.570;14.228;2023-05-15T14:20:09;0.20;;;0.20;;
75814;SDS011;70031;45.570;14.228;2023-05-15T14:22:17;1.17;;;0.20;;
75814;SDS011;70031;45.570;14.228;2023-05-15T14:24:42;0.25;;;0.20;;
75814;SDS011;70031;45.570;14.228;2023-05-15T14:26:42;0.22;;;0.22;;
75814;SDS011;70031;45.570;14.228;2023-05-15T14:28:59;0.38;;;0.38;;
75814;SDS011;70031;45.570;14.228;2023-05-15T14:37:44;0.88;;;0.20;;
75814;SDS011;70031;45.570;14.228;2023-05-15T14:39:45;3.25;;;0.30;;
75814;SDS011;70031;45.570;14.228;2023-05-15T14:44:16;0.47;;;0.30;;
75814;SDS011;70031;45.570;14.228;2023-05-15T14:49:17;0.20;;;0.20;;
75814;SDS011;70031;45.570;14.228;2023-05-15T14:51:18;0.20;;;0.20;;
75814;SDS011;70031;45.570;14.228;2023-05-15T14:53:18;0.55;;;0.30;;
75814;SDS011;70031;45.570;14.228;2023-05-15T14:55:18;1.52;;;0.20;;
75814;SDS011;70031;45.570;14.228;2023-05-15T14:57:22;0.10;;;0.10;;
75814;SDS011;70031;45.570;14.228;2023-05-15T14:59:23;0.30;;;0.20;;
75814;SDS011;70031;45.570;14.228;2023-05-15T15:01:24;0.40;;;0.20;;
75814;SDS011;70031;45.570;14.228;2023-05-15T15:03:24;0.20;;;0.20;;
75814;SDS011;70031;45.570;14.228;2023-05-15T15:05:24;0.35;;;0.32;;
75814;SDS011;70031;45.570;14.228;2023-05-15T15:07:28;0.22;;;0.22;;
75814;SDS011;70031;45.570;14.228;2023-05-15T15:09:31;0.20;;;0.20;;
75814;SDS011;70031;45.570;14.228;2023-05-15T15:11:32;0.22;;;0.20;;
75814;SDS011;70031;45.570;14.228;2023-05-15T15:13:32;0.20;;;0.20;;
75814;SDS011;70031;45.570;14.228;2023-05-15T15:15:33;0.10;;;0.10;;
75814;SDS011;70031;45.570;14.228;2023-05-15T15:17:33;0.20;;;0.20;;
75814;SDS011;70031;45.570;14.228;2023-05-15T15:19:38;0.20;;;0.20;;
75814;SDS011;70031;45.570;14.228;2023-05-15T15:21:38;0.13;;;0.13;;
75814;SDS011;70031;45.570;14.228;2023-05-15T15:23:39;0.20;;;0.20;;
75814;SDS011;70031;45.570;14.228;2023-05-15T15:25:39;0.45;;;0.30;;
75814;SDS011;70031;45.570;14.228;2023-05-15T15:27:40;0.75;;;0.40;;
75814;SDS011;70031;45.570;14.228;2023-05-15T15:29:40;0.25;;;0.25;;
75814;SDS011;70031;45.570;14.228;2023-05-15T15:31:40;3.30;;;0.38;;
75814;SDS011;70031;45.570;14.228;2023-05-15T15:33:50;0.20;;;0.20;;
75814;SDS011;70031;45.570;14.228;2023-05-15T15:35:50;0.10;;;0.10;;
75814;SDS011;70031;45.570;14.228;2023-05-15T15:38:06;0.20;;;0.20;;
75814;SDS011;70031;45.570;14.228;2023-05-15T15:40:14;0.80;;;0.30;;
75814;SDS011;70031;45.570;14.228;2023-05-15T15:42:15;2.95;;;0.60;;
75814;SDS011;70031;45.570;14.228;2023-05-15T15:44:15;0.22;;;0.20;;
75814;SDS011;70031;45.570;14.228;2023-05-15T15:46:15;0.20;;;0.20;;
75814;SDS011;70031;45.570;14.228;2023-05-15T15:48:22;0.95;;;0.40;;
75814;SDS011;70031;45.570;14.228;2023-05-15T15:50:22;0.20;;;0.20;;
75814;SDS011;70031;45.570;14.228;2023-05-15T15:52:28;8.55;;;0.63;;
75814;SDS011;70031;45.570;14.228;2023-05-15T15:54:41;2.60;;;0.70;;
75814;SDS011;70031;45.570;14.228;2023-05-15T15:56:51;0.68;;;0.40;;
75814;SDS011;70031;45.570;14.228;2023-05-15T15:58:52;0.55;;;0.20;;
75814;SDS011;70031;45.570;14.228;2023-05-15T16:01:01;5.82;;;0.47;;
75814;SDS011;70031;45.570;14.228;2023-05-15T16:03:14;0.20;;;0.20;;
75814;SDS011;70031;45.570;14.228;2023-05-15T16:05:17;0.30;;;0.30;;
75814;SDS011;70031;45.570;14.228;2023-05-15T16:07:33;0.50;;;0.30;;
75814;SDS011;70031;45.570;14.228;2023-05-15T16:09:33;0.20;;;0.20;;
75814;SDS011;70031;45.570;14.228;2023-05-15T16:11:46;0.55;;;0.30;;
75814;SDS011;70031;45.570;14.228;2023-05-15T16:13:55;0.30;;;0.30;;
75814;SDS011;70031;45.570;14.228;2023-05-15T16:15:55;1.92;;;0.28;;
75814;SDS011;70031;45.570;14.228;2023-05-15T16:17:56;0.30;;;0.30;;
75814;SDS011;70031;45.570;14.228;2023-05-15T16:19:56;2.35;;;0.30;;
75814;SDS011;70031;45.570;14.228;2023-05-15T16:21:57;0.20;;;0.20;;
75814;SDS011;70031;45.570;14.228;2023-05-15T16:23:57;0.30;;;0.30;;
75814;SDS011;70031;45.570;14.228;2023-05-15T16:26:16;0.75;;;0.43;;
75814;SDS011;70031;45.570;14.228;2023-05-15T16:28:25;0.20;;;0.20;;
75814;SDS011;70031;45.570;14.228;2023-05-15T16:30:28;0.30;;;0.28;;
75814;SDS011;70031;45.570;14.228;2023-05-15T16:32:28;3.10;;;0.30;;
75814;SDS011;70031;45.570;14.228;2023-05-15T16:34:29;0.73;;;0.30;;
75814;SDS011;70031;45.570;14.228;2023-05-15T16:36:45;0.50;;;0.30;;
75814;SDS011;70031;45.570;14.228;2023-05-15T16:38:45;0.20;;;0.20;;
75814;SDS011;70031;45.570;14.228;2023-05-15T16:40:52;0.20;;;0.20;;
75814;SDS011;70031;45.570;14.228;2023-05-15T16:43:01;0.20;;;0.20;;
75814;SDS011;70031;45.570;14.228;2023-05-15T16:45:02;4.82;;;0.90;;
75814;SDS011;70031;45.570;14.228;2023-05-15T16:47:03;2.65;;;0.70;;
75814;SDS011;70031;45.570;14.228;2023-05-15T16:51:34;0.45;;;0.30;;
75814;SDS011;70031;45.570;14.228;2023-05-15T16:53:35;0.55;;;0.50;;
75814;SDS011;70031;45.570;14.228;2023-05-15T16:55:41;0.20;;;0.20;;
75814;SDS011;70031;45.570;14.228;2023-05-15T16:57:57;0.22;;;0.20;;
75814;SDS011;70031;45.570;14.228;2023-05-15T17:00:00;3.78;;;0.77;;
75814;SDS011;70031;45.570;14.228;2023-05-15T17:02:06;0.20;;;0.20;;
75814;SDS011;70031;45.570;14.228;2023-05-15T17:16:56;0.35;;;0.30;;
75814;SDS011;70031;45.570;14.228;2023-05-15T17:19:22;0.40;;;0.30;;
75814;SDS011;70031;45.570;14.228;2023-05-15T17:23:35;0.63;;;0.50;;